sensor_id;sensor_type;location;lat;lon;timestamp;temperature;humidity
796;DHT22;381;48.770;9.188;2023-05-29T00:01:39;17.90;84.30
796;DHT22;381;48.770;9.188;2023-05-29T00:06:42;17.80;82.90
796;DHT22;381;48.770;9.188;2023-05-29T00:11:44;17.70;83.70
796;DHT22;381;48.770;9.188;2023-05-29T00:16:52;17.70;83.60
796;DHT22;381;48.770;9.188;2023-05-29T00:21:54;17.70;81.90
796;DHT22;381;48.770;9.188;2023-05-29T00:26:56;17.60;83.20
796;DHT22;381;48.770;9.188;2023-05-29T00:32:00;17.60;83.30
796;DHT22;381;48.770;9.188;2023-05-29T00:37:03;17.50;83.10
796;DHT22;381;48.770;9.188;2023-05-29T00:42:06;17.50;83.80
796;DHT22;381;48.770;9.188;2023-05-29T00:47:09;17.50;83.40
796;DHT22;381;48.770;9.188;2023-05-29T00:52:12;17.50;82.70
796;DHT22;381;48.770;9.188;2023-05-29T00:57:16;17.40;84.00
796;DHT22;381;48.770;9.188;2023-05-29T01:02:20;17.30;84.20
796;DHT22;381;48.770;9.188;2023-05-29T01:07:23;17.30;84.80
796;DHT22;381;48.770;9.188;2023-05-29T01:12:32;17.20;85.20
796;DHT22;381;48.770;9.188;2023-05-29T01:17:46;17.20;85.20
796;DHT22;381;48.770;9.188;2023-05-29T01:23:05;17.10;85.50
796;DHT22;381;48.770;9.188;2023-05-29T01:28:13;17.10;86.00
796;DHT22;381;48.770;9.188;2023-05-29T01:33:17;17.00;85.50
796;DHT22;381;48.770;9.188;2023-05-29T01:38:19;17.00;85.50
796;DHT22;381;48.770;9.188;2023-05-29T01:43:22;17.00;86.60
796;DHT22;381;48.770;9.188;2023-05-29T01:48:25;16.90;86.10
796;DHT22;381;48.770;9.188;2023-05-29T01:53:27;16.90;86.50
796;DHT22;381;48.770;9.188;2023-05-29T01:58:31;16.80;86.50
796;DHT22;381;48.770;9.188;2023-05-29T02:03:34;16.80;87.40
796;DHT22;381;48.770;9.188;2023-05-29T02:08:36;16.70;87.10
796;DHT22;381;48.770;9.188;2023-05-29T02:13:41;16.70;86.90
796;DHT22;381;48.770;9.188;2023-05-29T02:18:43;16.70;87.60
796;DHT22;381;48.770;9.188;2023-05-29T02:23:45;16.60;87.80
796;DHT22;381;48.770;9.188;2023-05-29T02:28:49;16.60;88.50
796;DHT22;381;48.770;9.188;2023-05-29T02:33:51;16.50;88.40
796;DHT22;381;48.770;9.188;2023-05-29T02:38:53;16.50;87.50
796;DHT22;381;48.770;9.188;2023-05-29T02:43:57;16.40;87.00
796;DHT22;381;48.770;9.188;2023-05-29T02:48:59;16.40;87.90
796;DHT22;381;48.770;9.188;2023-05-29T02:54:01;16.30;87.50
796;DHT22;381;48.770;9.188;2023-05-29T02:59:04;16.30;88.50
796;DHT22;381;48.770;9.188;2023-05-29T03:04:07;16.30;87.80
796;DHT22;381;48.770;9.188;2023-05-29T03:09:09;16.20;88.10
796;DHT22;381;48.770;9.188;2023-05-29T03:14:13;16.20;88.50
796;DHT22;381;48.770;9.188;2023-05-29T03:19:16;16.10;87.80
796;DHT22;381;48.770;9.188;2023-05-29T03:24:18;16.10;88.90
796;DHT22;381;48.770;9.188;2023-05-29T03:29:22;16.10;89.20
796;DHT22;381;48.770;9.188;2023-05-29T03:34:26;16.10;90.10
796;DHT22;381;48.770;9.188;2023-05-29T03:39:31;16.00;89.20
796;DHT22;381;48.770;9.188;2023-05-29T03:44:35;16.00;89.00
796;DHT22;381;48.770;9.188;2023-05-29T03:49:39;16.00;89.50
796;DHT22;381;48.770;9.188;2023-05-29T03:54:42;16.00;89.70
796;DHT22;381;48.770;9.188;2023-05-29T03:59:47;16.00;90.00
796;DHT22;381;48.770;9.188;2023-05-29T04:04:49;15.90;89.80
796;DHT22;381;48.770;9.188;2023-05-29T04:09:51;16.00;90.10
796;DHT22;381;48.770;9.188;2023-05-29T04:14:55;15.90;90.00
796;DHT22;381;48.770;9.188;2023-05-29T04:19:57;16.00;90.10
796;DHT22;381;48.770;9.188;2023-05-29T04:25:00;16.00;90.40
796;DHT22;381;48.770;9.188;2023-05-29T04:30:04;16.00;90.10
796;DHT22;381;48.770;9.188;2023-05-29T04:35:10;16.00;90.20
796;DHT22;381;48.770;9.188;2023-05-29T04:40:19;16.00;90.60
796;DHT22;381;48.770;9.188;2023-05-29T04:45:23;16.00;90.60
796;DHT22;381;48.770;9.188;2023-05-29T04:50:27;16.00;90.70
796;DHT22;381;48.770;9.188;2023-05-29T04:55:31;16.10;91.20
796;DHT22;381;48.770;9.188;2023-05-29T05:00:34;16.10;91.10
796;DHT22;381;48.770;9.188;2023-05-29T05:05:36;16.10;90.90
796;DHT22;381;48.770;9.188;2023-05-29T05:10:38;16.20;91.10
796;DHT22;381;48.770;9.188;2023-05-29T05:15:43;16.20;91.30
796;DHT22;381;48.770;9.188;2023-05-29T05:20:46;16.30;91.50
796;DHT22;381;48.770;9.188;2023-05-29T05:25:48;16.30;91.60
796;DHT22;381;48.770;9.188;2023-05-29T05:30:52;16.40;91.60
796;DHT22;381;48.770;9.188;2023-05-29T05:35:54;16.40;91.40
796;DHT22;381;48.770;9.188;2023-05-29T05:40:57;16.50;91.60
796;DHT22;381;48.770;9.188;2023-05-29T05:46:06;16.50;91.50
796;DHT22;381;48.770;9.188;2023-05-29T05:51:10;16.60;91.50
796;DHT22;381;48.770;9.188;2023-05-29T05:56:13;16.70;91.40
796;DHT22;381;48.770;9.188;2023-05-29T06:01:16;16.80;91.30
796;DHT22;381;48.770;9.188;2023-05-29T06:06:19;16.90;91.50
796;DHT22;381;48.770;9.188;2023-05-29T06:11:23;17.00;91.40
796;DHT22;381;48.770;9.188;2023-05-29T06:16:28;17.10;91.40
796;DHT22;381;48.770;9.188;2023-05-29T06:21:31;17.20;91.60
796;DHT22;381;48.770;9.188;2023-05-29T06:26:34;17.30;91.10
796;DHT22;381;48.770;9.188;2023-05-29T06:31:38;17.50;91.20
796;DHT22;381;48.770;9.188;2023-05-29T06:36:42;17.70;90.80
796;DHT22;381;48.770;9.188;2023-05-29T06:41:45;18.10;90.40
796;DHT22;381;48.770;9.188;2023-05-29T06:46:53;18.40;90.40
796;DHT22;381;48.770;9.188;2023-05-29T06:51:55;18.80;89.60
796;DHT22;381;48.770;9.188;2023-05-29T06:57:00;19.10;88.00
796;DHT22;381;48.770;9.188;2023-05-29T07:02:03;19.50;88.60
796;DHT22;381;48.770;9.188;2023-05-29T07:07:06;19.80;88.70
796;DHT22;381;48.770;9.188;2023-05-29T07:12:08;20.10;87.70
796;DHT22;381;48.770;9.188;2023-05-29T07:17:11;20.40;86.60
796;DHT22;381;48.770;9.188;2023-05-29T07:22:14;20.70;86.50
796;DHT22;381;48.770;9.188;2023-05-29T07:27:16;21.00;85.70
796;DHT22;381;48.770;9.188;2023-05-29T07:32:19;21.50;85.20
796;DHT22;381;48.770;9.188;2023-05-29T07:37:22;21.90;84.20
796;DHT22;381;48.770;9.188;2023-05-29T07:42:25;22.40;79.50
796;DHT22;381;48.770;9.188;2023-05-29T07:47:29;22.80;80.60
796;DHT22;381;48.770;9.188;2023-05-29T07:52:32;23.40;80.30
796;DHT22;381;48.770;9.188;2023-05-29T07:57:35;23.90;79.10
796;DHT22;381;48.770;9.188;2023-05-29T08:02:40;24.30;77.60
796;DHT22;381;48.770;9.188;2023-05-29T08:08:03;24.80;77.70
796;DHT22;381;48.770;9.188;2023-05-29T08:13:07;25.30;77.80
796;DHT22;381;48.770;9.188;2023-05-29T08:18:12;25.70;69.30
796;DHT22;381;48.770;9.188;2023-05-29T08:23:14;26.00;74.80
796;DHT22;381;48.770;9.188;2023-05-29T08:28:16;26.30;75.00
796;DHT22;381;48.770;9.188;2023-05-29T08:33:20;26.50;67.00
796;DHT22;381;48.770;9.188;2023-05-29T08:38:22;26.70;70.70
796;DHT22;381;48.770;9.188;2023-05-29T08:43:30;26.80;71.40
796;DHT22;381;48.770;9.188;2023-05-29T08:48:38;26.90;70.00
796;DHT22;381;48.770;9.188;2023-05-29T08:53:42;27.00;69.40
796;DHT22;381;48.770;9.188;2023-05-29T08:58:44;27.10;66.90
796;DHT22;381;48.770;9.188;2023-05-29T09:03:48;27.30;71.30
796;DHT22;381;48.770;9.188;2023-05-29T09:08:51;27.60;72.30
796;DHT22;381;48.770;9.188;2023-05-29T09:13:53;27.70;70.30
796;DHT22;381;48.770;9.188;2023-05-29T09:19:08;27.90;72.20
796;DHT22;381;48.770;9.188;2023-05-29T09:24:14;28.10;71.80
796;DHT22;381;48.770;9.188;2023-05-29T09:29:16;28.10;71.40
796;DHT22;381;48.770;9.188;2023-05-29T09:34:23;28.20;70.60
796;DHT22;381;48.770;9.188;2023-05-29T09:39:25;28.30;71.50
796;DHT22;381;48.770;9.188;2023-05-29T09:44:28;28.40;72.00
796;DHT22;381;48.770;9.188;2023-05-29T09:49:33;28.50;67.90
796;DHT22;381;48.770;9.188;2023-05-29T09:54:39;28.60;70.10
796;DHT22;381;48.770;9.188;2023-05-29T09:59:43;28.60;64.70
796;DHT22;381;48.770;9.188;2023-05-29T10:04:49;28.60;68.60
796;DHT22;381;48.770;9.188;2023-05-29T10:09:54;28.80;68.30
796;DHT22;381;48.770;9.188;2023-05-29T10:15:00;28.90;69.40
796;DHT22;381;48.770;9.188;2023-05-29T10:20:05;28.90;69.50
796;DHT22;381;48.770;9.188;2023-05-29T10:25:09;28.70;69.10
796;DHT22;381;48.770;9.188;2023-05-29T10:30:20;28.20;61.60
796;DHT22;381;48.770;9.188;2023-05-29T10:35:35;27.60;70.00
796;DHT22;381;48.770;9.188;2023-05-29T10:40:39;27.00;68.50
796;DHT22;381;48.770;9.188;2023-05-29T10:45:49;26.50;64.40
796;DHT22;381;48.770;9.188;2023-05-29T10:50:56;26.10;69.20
796;DHT22;381;48.770;9.188;2023-05-29T10:55:59;25.70;70.40
796;DHT22;381;48.770;9.188;2023-05-29T11:01:01;25.40;66.70
796;DHT22;381;48.770;9.188;2023-05-29T11:06:07;25.10;69.90
796;DHT22;381;48.770;9.188;2023-05-29T11:11:29;24.80;69.20
796;DHT22;381;48.770;9.188;2023-05-29T11:16:36;24.50;67.70
796;DHT22;381;48.770;9.188;2023-05-29T11:21:53;24.40;67.10
796;DHT22;381;48.770;9.188;2023-05-29T11:26:58;24.30;66.70
796;DHT22;381;48.770;9.188;2023-05-29T11:32:06;24.10;66.70
796;DHT22;381;48.770;9.188;2023-05-29T11:37:11;24.00;67.40
796;DHT22;381;48.770;9.188;2023-05-29T11:42:13;24.00;64.90
796;DHT22;381;48.770;9.188;2023-05-29T11:47:16;24.00;66.40
796;DHT22;381;48.770;9.188;2023-05-29T11:52:21;23.80;69.90
796;DHT22;381;48.770;9.188;2023-05-29T11:57:25;23.80;66.30
796;DHT22;381;48.770;9.188;2023-05-29T12:02:30;23.80;63.20
796;DHT22;381;48.770;9.188;2023-05-29T12:07:34;23.70;66.90
796;DHT22;381;48.770;9.188;2023-05-29T12:12:37;23.70;68.40
796;DHT22;381;48.770;9.188;2023-05-29T12:17:40;23.60;64.80
796;DHT22;381;48.770;9.188;2023-05-29T12:22:45;23.60;65.20
796;DHT22;381;48.770;9.188;2023-05-29T12:27:48;23.70;62.60
796;DHT22;381;48.770;9.188;2023-05-29T12:32:52;23.70;61.30
796;DHT22;381;48.770;9.188;2023-05-29T12:37:57;23.70;58.40
796;DHT22;381;48.770;9.188;2023-05-29T12:43:00;23.80;58.40
796;DHT22;381;48.770;9.188;2023-05-29T12:48:04;23.60;72.90
796;DHT22;381;48.770;9.188;2023-05-29T12:53:09;23.00;71.70
796;DHT22;381;48.770;9.188;2023-05-29T12:58:14;22.90;68.10
796;DHT22;381;48.770;9.188;2023-05-29T13:03:18;23.10;60.60
796;DHT22;381;48.770;9.188;2023-05-29T13:08:22;23.20;60.70
796;DHT22;381;48.770;9.188;2023-05-29T13:13:25;23.40;62.00
796;DHT22;381;48.770;9.188;2023-05-29T13:18:27;23.50;61.40
796;DHT22;381;48.770;9.188;2023-05-29T13:23:31;23.60;61.50
796;DHT22;381;48.770;9.188;2023-05-29T13:28:33;23.60;56.30
796;DHT22;381;48.770;9.188;2023-05-29T13:33:35;23.80;58.60
796;DHT22;381;48.770;9.188;2023-05-29T13:38:39;23.80;58.00
796;DHT22;381;48.770;9.188;2023-05-29T13:43:41;23.90;57.30
796;DHT22;381;48.770;9.188;2023-05-29T13:48:43;23.90;57.90
796;DHT22;381;48.770;9.188;2023-05-29T13:53:47;23.90;56.60
796;DHT22;381;48.770;9.188;2023-05-29T13:58:49;23.90;57.70
796;DHT22;381;48.770;9.188;2023-05-29T14:03:51;24.00;57.90
796;DHT22;381;48.770;9.188;2023-05-29T14:08:55;23.90;58.00
796;DHT22;381;48.770;9.188;2023-05-29T14:13:58;23.90;57.10
796;DHT22;381;48.770;9.188;2023-05-29T14:19:01;23.90;57.40
796;DHT22;381;48.770;9.188;2023-05-29T14:24:05;23.90;57.10
796;DHT22;381;48.770;9.188;2023-05-29T14:29:08;24.00;57.40
796;DHT22;381;48.770;9.188;2023-05-29T14:34:10;23.90;59.00
796;DHT22;381;48.770;9.188;2023-05-29T14:39:14;23.90;56.60
796;DHT22;381;48.770;9.188;2023-05-29T14:44:16;24.00;56.80
796;DHT22;381;48.770;9.188;2023-05-29T14:49:19;23.90;55.80
796;DHT22;381;48.770;9.188;2023-05-29T14:54:32;23.90;56.40
796;DHT22;381;48.770;9.188;2023-05-29T14:59:37;23.80;57.40
796;DHT22;381;48.770;9.188;2023-05-29T15:04:41;23.70;57.90
796;DHT22;381;48.770;9.188;2023-05-29T15:09:44;23.70;58.30
796;DHT22;381;48.770;9.188;2023-05-29T15:14:46;23.80;56.50
796;DHT22;381;48.770;9.188;2023-05-29T15:19:49;23.90;58.00
796;DHT22;381;48.770;9.188;2023-05-29T15:24:52;24.00;58.30
796;DHT22;381;48.770;9.188;2023-05-29T15:30:12;23.90;58.60
796;DHT22;381;48.770;9.188;2023-05-29T15:35:15;23.90;58.70
796;DHT22;381;48.770;9.188;2023-05-29T15:40:18;23.90;59.70
796;DHT22;381;48.770;9.188;2023-05-29T15:45:22;24.00;59.60
796;DHT22;381;48.770;9.188;2023-05-29T15:50:36;24.00;58.60
796;DHT22;381;48.770;9.188;2023-05-29T15:55:40;24.00;59.40
796;DHT22;381;48.770;9.188;2023-05-29T16:00:43;24.00;59.00
796;DHT22;381;48.770;9.188;2023-05-29T16:05:45;23.90;59.40
796;DHT22;381;48.770;9.188;2023-05-29T16:16:41;23.90;58.40
796;DHT22;381;48.770;9.188;2023-05-29T16:21:43;24.00;57.40
796;DHT22;381;48.770;9.188;2023-05-29T16:26:45;24.10;56.10
796;DHT22;381;48.770;9.188;2023-05-29T16:31:49;24.10;57.30
796;DHT22;381;48.770;9.188;2023-05-29T16:36:52;24.00;58.20
796;DHT22;381;48.770;9.188;2023-05-29T16:41:58;23.90;58.50
796;DHT22;381;48.770;9.188;2023-05-29T16:47:08;23.80;58.60
796;DHT22;381;48.770;9.188;2023-05-29T16:52:13;23.80;58.30
796;DHT22;381;48.770;9.188;2023-05-29T16:57:20;23.80;57.20
796;DHT22;381;48.770;9.188;2023-05-29T17:02:24;23.70;58.00
796;DHT22;381;48.770;9.188;2023-05-29T17:07:26;23.70;59.00
796;DHT22;381;48.770;9.188;2023-05-29T17:12:29;23.70;57.60
796;DHT22;381;48.770;9.188;2023-05-29T17:17:33;23.70;58.70
796;DHT22;381;48.770;9.188;2023-05-29T17:22:41;23.70;57.90
796;DHT22;381;48.770;9.188;2023-05-29T17:27:56;23.70;58.30
796;DHT22;381;48.770;9.188;2023-05-29T17:33:01;23.70;58.40
796;DHT22;381;48.770;9.188;2023-05-29T17:38:04;23.60;58.70
796;DHT22;381;48.770;9.188;2023-05-29T17:43:06;23.50;59.30
796;DHT22;381;48.770;9.188;2023-05-29T17:48:09;23.40;59.40
796;DHT22;381;48.770;9.188;2023-05-29T17:53:12;23.30;59.20
796;DHT22;381;48.770;9.188;2023-05-29T17:58:14;23.20;59.50
796;DHT22;381;48.770;9.188;2023-05-29T18:03:17;23.20;59.70
796;DHT22;381;48.770;9.188;2023-05-29T18:08:19;23.20;59.60
796;DHT22;381;48.770;9.188;2023-05-29T18:13:22;23.20;60.20
796;DHT22;381;48.770;9.188;2023-05-29T18:18:25;23.10;59.80
796;DHT22;381;48.770;9.188;2023-05-29T18:23:28;23.00;59.70
796;DHT22;381;48.770;9.188;2023-05-29T18:28:30;22.90;58.80
796;DHT22;381;48.770;9.188;2023-05-29T18:33:35;22.80;60.50
796;DHT22;381;48.770;9.188;2023-05-29T18:38:37;22.70;60.10
796;DHT22;381;48.770;9.188;2023-05-29T18:43:39;22.60;61.20
796;DHT22;381;48.770;9.188;2023-05-29T18:48:42;22.60;61.20
796;DHT22;381;48.770;9.188;2023-05-29T18:53:44;22.50;63.40
796;DHT22;381;48.770;9.188;2023-05-29T18:58:46;22.40;65.80
796;DHT22;381;48.770;9.188;2023-05-29T19:03:50;22.30;66.50
796;DHT22;381;48.770;9.188;2023-05-29T19:08:52;22.10;64.50
796;DHT22;381;48.770;9.188;2023-05-29T19:13:54;22.00;71.50
796;DHT22;381;48.770;9.188;2023-05-29T19:18:58;21.90;65.40
796;DHT22;381;48.770;9.188;2023-05-29T19:24:00;21.80;64.30
796;DHT22;381;48.770;9.188;2023-05-29T19:29:05;21.70;65.40
796;DHT22;381;48.770;9.188;2023-05-29T19:34:08;21.70;65.60
796;DHT22;381;48.770;9.188;2023-05-29T19:39:11;21.60;66.40
796;DHT22;381;48.770;9.188;2023-05-29T19:44:13;21.50;67.00
796;DHT22;381;48.770;9.188;2023-05-29T19:49:17;21.40;67.60
796;DHT22;381;48.770;9.188;2023-05-29T19:54:20;21.30;67.90
796;DHT22;381;48.770;9.188;2023-05-29T19:59:22;21.20;68.10
796;DHT22;381;48.770;9.188;2023-05-29T20:04:28;21.10;69.10
796;DHT22;381;48.770;9.188;2023-05-29T20:09:31;20.90;68.30
796;DHT22;381;48.770;9.188;2023-05-29T20:14:33;20.80;69.20
796;DHT22;381;48.770;9.188;2023-05-29T20:19:41;20.70;70.00
796;DHT22;381;48.770;9.188;2023-05-29T20:24:50;20.60;70.40
796;DHT22;381;48.770;9.188;2023-05-29T20:29:52;20.50;70.50
796;DHT22;381;48.770;9.188;2023-05-29T20:34:56;20.40;70.10
796;DHT22;381;48.770;9.188;2023-05-29T20:39:59;20.30;70.40
796;DHT22;381;48.770;9.188;2023-05-29T20:45:01;20.30;70.70
796;DHT22;381;48.770;9.188;2023-05-29T20:50:05;20.20;70.40
796;DHT22;381;48.770;9.188;2023-05-29T20:55:08;20.10;71.20
796;DHT22;381;48.770;9.188;2023-05-29T21:00:11;20.00;71.50
796;DHT22;381;48.770;9.188;2023-05-29T21:05:16;20.00;72.30
796;DHT22;381;48.770;9.188;2023-05-29T21:10:18;19.90;71.70
796;DHT22;381;48.770;9.188;2023-05-29T21:15:20;19.80;72.40
796;DHT22;381;48.770;9.188;2023-05-29T21:20:24;19.70;72.20
796;DHT22;381;48.770;9.188;2023-05-29T21:25:26;19.70;72.80
796;DHT22;381;48.770;9.188;2023-05-29T21:30:28;19.60;72.50
796;DHT22;381;48.770;9.188;2023-05-29T21:35:32;19.60;72.30
796;DHT22;381;48.770;9.188;2023-05-29T21:40:34;19.50;73.30
796;DHT22;381;48.770;9.188;2023-05-29T21:45:36;19.40;72.80
796;DHT22;381;48.770;9.188;2023-05-29T21:50:39;19.40;72.50
796;DHT22;381;48.770;9.188;2023-05-29T21:55:41;19.30;72.70
796;DHT22;381;48.770;9.188;2023-05-29T22:00:44;19.20;72.90
796;DHT22;381;48.770;9.188;2023-05-29T22:05:47;19.20;72.70
796;DHT22;381;48.770;9.188;2023-05-29T22:10:49;19.10;73.80
796;DHT22;381;48.770;9.188;2023-05-29T22:15:51;19.10;73.30
796;DHT22;381;48.770;9.188;2023-05-29T22:20:55;19.00;73.40
796;DHT22;381;48.770;9.188;2023-05-29T22:25:58;18.90;74.70
796;DHT22;381;48.770;9.188;2023-05-29T22:31:00;18.90;74.00
796;DHT22;381;48.770;9.188;2023-05-29T22:36:04;18.80;73.60
796;DHT22;381;48.770;9.188;2023-05-29T22:41:07;18.80;73.90
796;DHT22;381;48.770;9.188;2023-05-29T22:46:09;18.70;74.00
796;DHT22;381;48.770;9.188;2023-05-29T22:51:12;18.60;73.90
796;DHT22;381;48.770;9.188;2023-05-29T22:56:16;18.60;74.20
796;DHT22;381;48.770;9.188;2023-05-29T23:01:18;18.70;74.70
796;DHT22;381;48.770;9.188;2023-05-29T23:06:21;18.70;74.10
796;DHT22;381;48.770;9.188;2023-05-29T23:11:23;18.80;75.00
796;DHT22;381;48.770;9.188;2023-05-29T23:16:26;18.80;74.10
796;DHT22;381;48.770;9.188;2023-05-29T23:21:30;18.90;74.20
796;DHT22;381;48.770;9.188;2023-05-29T23:26:32;18.90;74.10
796;DHT22;381;48.770;9.188;2023-05-29T23:31:34;18.90;75.20
796;DHT22;381;48.770;9.188;2023-05-29T23:36:38;18.90;74.80
796;DHT22;381;48.770;9.188;2023-05-29T23:41:41;18.80;75.20
796;DHT22;381;48.770;9.188;2023-05-29T23:46:43;18.70;76.30
796;DHT22;381;48.770;9.188;2023-05-29T23:51:47;18.70;75.90
796;DHT22;381;48.770;9.188;2023-05-29T23:56:50;18.60;76.50
